createdAt,value
2018-02-05T00:01:01.512Z,0.80
2018-02-05T00:02:04.764Z,0.80
2018-02-05T00:03:07.242Z,0.80
2018-02-05T00:04:09.734Z,0.90
2018-02-05T00:05:12.237Z,0.80
2018-02-05T00:06:14.724Z,0.80
2018-02-05T00:07:17.226Z,0.90
2018-02-05T00:08:19.710Z,0.80
2018-02-05T00:09:23.711Z,0.80
2018-02-05T00:10:26.962Z,0.80
2018-02-05T00:11:30.375Z,0.90
2018-02-05T00:12:32.863Z,0.80
2018-02-05T00:13:36.136Z,0.80
2018-02-05T00:14:38.603Z,0.80
2018-02-05T00:15:41.083Z,0.90
2018-02-05T00:16:44.331Z,0.90
2018-02-05T00:17:46.812Z,1.00
2018-02-05T00:18:49.309Z,0.80
2018-02-05T00:19:51.816Z,0.90
2018-02-05T00:20:54.284Z,0.90
2018-02-05T00:21:56.792Z,0.80
2018-02-05T00:22:59.261Z,0.80
2018-02-05T00:24:01.742Z,0.80
2018-02-05T00:25:04.235Z,0.80
2018-02-05T00:26:07.522Z,0.80
2018-02-05T00:27:10.014Z,0.70
2018-02-05T00:28:13.419Z,0.70
2018-02-05T00:29:15.903Z,0.70
2018-02-05T00:30:20.651Z,0.70
2018-02-05T00:31:23.140Z,0.70
2018-02-05T00:32:25.615Z,0.60
2018-02-05T00:33:28.089Z,0.60
2018-02-05T00:34:30.558Z,0.60
2018-02-05T00:35:33.025Z,0.60
2018-02-05T00:36:35.524Z,0.60
2018-02-05T00:37:38.042Z,0.60
2018-02-05T00:38:40.539Z,0.50
2018-02-05T00:39:43.026Z,0.50
2018-02-05T00:40:46.297Z,0.40
2018-02-05T00:41:48.797Z,0.40
2018-02-05T00:42:51.278Z,0.40
2018-02-05T00:43:53.781Z,0.40
2018-02-05T00:44:56.252Z,0.40
2018-02-05T00:45:58.882Z,0.30
2018-02-05T00:47:01.359Z,0.30
2018-02-05T00:48:03.833Z,0.40
2018-02-05T00:49:06.297Z,0.30
2018-02-05T00:50:08.773Z,0.20
2018-02-05T00:51:11.285Z,0.20
2018-02-05T00:52:14.531Z,0.10
2018-02-05T00:53:17.004Z,0.10
2018-02-05T00:54:19.486Z,0.10
2018-02-05T00:55:21.982Z,0.10
2018-02-05T00:56:24.461Z,0.00
2018-02-05T00:57:26.968Z,0.00
2018-02-05T00:58:29.436Z,0.00
2018-02-05T00:59:32.697Z,-0.10
2018-02-05T01:00:35.193Z,-0.10
2018-02-05T01:01:38.447Z,-0.20
2018-02-05T01:02:40.953Z,-0.20
2018-02-05T01:03:44.233Z,-0.20
2018-02-05T01:04:47.468Z,-0.20
2018-02-05T01:05:49.955Z,-0.30
2018-02-05T01:06:52.447Z,-0.30
2018-02-05T01:07:54.941Z,-0.30
2018-02-05T01:08:58.207Z,-0.30
2018-02-05T01:10:00.694Z,-0.40
2018-02-05T01:11:03.951Z,-0.40
2018-02-05T01:12:06.489Z,-0.40
2018-02-05T01:13:09.763Z,-0.40
2018-02-05T01:14:12.232Z,-0.40
2018-02-05T01:15:14.722Z,-0.50
2018-02-05T01:16:17.213Z,-0.50
2018-02-05T01:17:19.707Z,-0.50
2018-02-05T01:18:22.786Z,-0.50
2018-02-05T01:19:25.275Z,-0.50
2018-02-05T01:20:27.786Z,-0.50
2018-02-05T01:21:30.278Z,-0.50
2018-02-05T01:22:32.751Z,-0.50
2018-02-05T01:23:35.273Z,-0.60
2018-02-05T01:24:37.715Z,-0.60
2018-02-05T01:25:40.216Z,-0.60
2018-02-05T01:26:43.413Z,-0.60
2018-02-05T01:27:45.969Z,-0.60
2018-02-05T01:28:48.453Z,-0.90
2018-02-05T01:29:50.933Z,-0.60
2018-02-05T01:30:53.404Z,-0.60
2018-02-05T01:31:55.884Z,-0.60
2018-02-05T01:32:58.416Z,-0.70
2018-02-05T01:34:01.717Z,-0.60
2018-02-05T01:35:04.188Z,-0.60
2018-02-05T01:36:06.674Z,-0.60
2018-02-05T01:37:09.163Z,-0.60
2018-02-05T01:38:12.624Z,-0.70
2018-02-05T01:39:15.110Z,-0.60
2018-02-05T01:40:17.595Z,-0.60
2018-02-05T01:41:20.735Z,-0.70
2018-02-05T01:42:23.973Z,-0.70
2018-02-05T01:43:26.470Z,-0.70
2018-02-05T01:44:28.941Z,-0.70
2018-02-05T01:45:31.431Z,-0.80
2018-02-05T01:46:34.690Z,-0.70
2018-02-05T01:47:37.180Z,-0.80
2018-02-05T01:48:39.685Z,-0.80
2018-02-05T01:49:42.176Z,-0.80
2018-02-05T01:50:45.573Z,-0.80
2018-02-05T01:51:48.659Z,-0.80
2018-02-05T01:52:51.133Z,-0.80
2018-02-05T01:53:53.625Z,-0.80
2018-02-05T01:54:56.108Z,-0.80
2018-02-05T01:55:59.359Z,-0.80
2018-02-05T01:57:02.434Z,-0.80
2018-02-05T01:58:05.893Z,-0.80
2018-02-05T01:59:08.380Z,-0.80
2018-02-05T02:00:10.946Z,-0.80
2018-02-05T02:01:14.229Z,-0.70
2018-02-05T02:02:16.714Z,-0.80
2018-02-05T02:03:20.019Z,-0.80
2018-02-05T02:04:22.521Z,-0.70
2018-02-05T02:05:25.017Z,-0.80
2018-02-05T02:06:28.268Z,-0.80
2018-02-05T02:07:30.784Z,-0.80
2018-02-05T02:08:33.266Z,-0.80
2018-02-05T02:09:35.783Z,-0.80
2018-02-05T02:10:38.263Z,-0.80
2018-02-05T02:11:40.795Z,-0.80
2018-02-05T02:12:43.664Z,-0.90
2018-02-05T02:13:46.144Z,-0.90
2018-02-05T02:14:48.640Z,-0.90
2018-02-05T02:15:51.155Z,-0.90
2018-02-05T02:16:53.645Z,-0.90
2018-02-05T02:17:57.223Z,-0.90
2018-02-05T02:18:59.705Z,-0.90
2018-02-05T02:20:02.224Z,-0.90
2018-02-05T02:21:04.728Z,-0.90
2018-02-05T02:22:08.005Z,-0.90
2018-02-05T02:23:11.264Z,-0.90
2018-02-05T02:24:13.751Z,-1.00
2018-02-05T02:25:16.238Z,-1.00
2018-02-05T02:26:19.876Z,-1.00
2018-02-05T02:27:22.472Z,-1.00
2018-02-05T02:28:26.169Z,-1.00
2018-02-05T02:29:29.225Z,-1.00
2018-02-05T02:30:31.750Z,-1.00
2018-02-05T02:31:34.252Z,-1.00
2018-02-05T02:32:36.734Z,-1.00
2018-02-05T02:33:39.213Z,-1.10
2018-02-05T02:34:41.703Z,-1.10
2018-02-05T02:35:44.205Z,-1.10
2018-02-05T02:36:46.748Z,-1.20
2018-02-05T02:37:49.236Z,-1.10
2018-02-05T02:38:51.716Z,-1.10
2018-02-05T02:39:54.991Z,-1.20
2018-02-05T02:40:57.470Z,-1.20
2018-02-05T02:41:59.941Z,-1.20
2018-02-05T02:43:02.461Z,-1.20
2018-02-05T02:44:04.962Z,-1.20
2018-02-05T02:45:07.465Z,-1.20
2018-02-05T02:46:10.717Z,-1.30
2018-02-05T02:47:13.209Z,-1.30
2018-02-05T02:48:15.720Z,-1.30
2018-02-05T02:49:18.235Z,-1.30
2018-02-05T02:50:20.711Z,-1.30
2018-02-05T02:51:23.213Z,-1.30
2018-02-05T02:52:25.691Z,-1.40
2018-02-05T02:53:28.190Z,-1.40
2018-02-05T02:54:30.672Z,-1.40
2018-02-05T02:55:33.159Z,-1.40
2018-02-05T02:56:35.648Z,-1.40
2018-02-05T02:57:38.907Z,-1.50
2018-02-05T02:58:41.392Z,-1.50
2018-02-05T02:59:44.378Z,-1.50
2018-02-05T03:00:46.859Z,-1.50
2018-02-05T03:01:49.344Z,-1.50
2018-02-05T03:02:52.605Z,-1.50
2018-02-05T03:03:56.003Z,-1.50
2018-02-05T03:04:58.493Z,-1.50
2018-02-05T03:06:01.747Z,-1.50
2018-02-05T03:07:04.239Z,-1.50
2018-02-05T03:08:07.572Z,-1.40
2018-02-05T03:09:10.087Z,-1.50
2018-02-05T03:10:13.268Z,-1.50
2018-02-05T03:11:15.745Z,-1.50
2018-02-05T03:12:18.239Z,-1.50
2018-02-05T03:13:21.488Z,-1.50
2018-02-05T03:14:23.966Z,-1.50
2018-02-05T03:15:26.459Z,-1.50
2018-02-05T03:16:30.809Z,-1.50
2018-02-05T03:17:33.308Z,-1.50
2018-02-05T03:18:35.792Z,-1.50
2018-02-05T03:19:38.280Z,-1.50
2018-02-05T03:20:40.756Z,-1.40
2018-02-05T03:21:44.013Z,-1.40
2018-02-05T03:22:46.489Z,-1.40
2018-02-05T03:23:48.979Z,-1.40
2018-02-05T03:24:52.231Z,-1.30
2018-02-05T03:25:54.761Z,-1.40
2018-02-05T03:26:58.027Z,-1.30
2018-02-05T03:28:00.546Z,-1.30
2018-02-05T03:29:03.923Z,-1.30
2018-02-05T03:30:06.439Z,-1.30
2018-02-05T03:31:08.914Z,-1.30
2018-02-05T03:32:12.351Z,-1.30
2018-02-05T03:33:14.895Z,-1.20
2018-02-05T03:34:17.380Z,-1.20
2018-02-05T03:35:20.645Z,-1.20
2018-02-05T03:36:23.116Z,-1.20
2018-02-05T03:37:25.603Z,-1.20
2018-02-05T03:38:28.849Z,-1.20
2018-02-05T03:39:31.335Z,-1.20
2018-02-05T03:40:33.813Z,-1.20
2018-02-05T03:41:36.384Z,-1.20
2018-02-05T03:42:38.865Z,-1.20
2018-02-05T03:43:41.339Z,-1.20
2018-02-05T03:44:44.579Z,-1.20
2018-02-05T03:45:47.059Z,-1.20
2018-02-05T03:46:49.553Z,-1.20
2018-02-05T03:47:52.037Z,-1.20
2018-02-05T03:48:55.276Z,-1.20
2018-02-05T03:49:57.766Z,-1.20
2018-02-05T03:51:00.245Z,-1.10
2018-02-05T03:52:02.718Z,-1.20
2018-02-05T03:53:05.256Z,-1.20
2018-02-05T03:54:07.760Z,-1.20
2018-02-05T03:55:10.344Z,-1.20
2018-02-05T03:56:13.687Z,-1.20
2018-02-05T03:57:16.174Z,-1.20
2018-02-05T03:58:18.655Z,-1.20
2018-02-05T03:59:21.140Z,-1.10
2018-02-05T04:00:23.640Z,-1.10
2018-02-05T04:01:26.889Z,-1.00
2018-02-05T04:02:29.388Z,-1.00
2018-02-05T04:03:31.876Z,-1.00
2018-02-05T04:04:34.365Z,-0.90
2018-02-05T04:05:37.616Z,-0.80
2018-02-05T04:06:45.772Z,-0.80
2018-02-05T04:07:49.046Z,-0.70
2018-02-05T04:08:53.330Z,-0.60
2018-02-05T04:09:55.811Z,-0.60
2018-02-05T04:10:58.284Z,-0.60
2018-02-05T04:12:00.777Z,-0.50
2018-02-05T04:13:03.288Z,-0.40
2018-02-05T04:14:06.174Z,-0.40
2018-02-05T04:15:08.655Z,-0.40
2018-02-05T04:16:11.991Z,-0.30
2018-02-05T04:17:14.463Z,-0.30
2018-02-05T04:18:17.714Z,-0.20
2018-02-05T04:19:20.197Z,-0.20
2018-02-05T04:20:22.691Z,-0.20
2018-02-05T04:21:26.147Z,-0.20
2018-02-05T04:22:28.637Z,-0.10
2018-02-05T04:23:31.140Z,-0.10
2018-02-05T04:24:34.385Z,-0.10
2018-02-05T04:25:37.617Z,0.00
2018-02-05T04:26:41.093Z,-0.10
2018-02-05T04:27:43.567Z,0.00
2018-02-05T04:28:46.828Z,0.00
2018-02-05T04:29:49.310Z,0.00
2018-02-05T04:30:51.775Z,0.10
2018-02-05T04:31:54.271Z,0.10
2018-02-05T04:32:58.312Z,0.20
2018-02-05T04:34:00.780Z,0.10
2018-02-05T04:35:03.273Z,0.20
2018-02-05T04:36:06.702Z,0.20
2018-02-05T04:37:09.226Z,0.20
2018-02-05T04:38:11.774Z,0.20
2018-02-05T04:39:14.998Z,0.20
2018-02-05T04:40:17.487Z,0.20
2018-02-05T04:41:19.968Z,0.30
2018-02-05T04:42:22.453Z,0.30
2018-02-05T04:43:25.744Z,0.40
2018-02-05T04:44:29.000Z,0.40
2018-02-05T04:45:31.478Z,0.40
2018-02-05T04:46:33.959Z,0.40
2018-02-05T04:47:36.434Z,0.40
2018-02-05T04:48:38.931Z,0.50
2018-02-05T04:49:41.401Z,0.60
2018-02-05T04:50:44.633Z,0.50
2018-02-05T04:51:47.372Z,0.50
2018-02-05T04:52:49.867Z,0.50
2018-02-05T04:53:53.136Z,0.60
2018-02-05T04:54:55.659Z,0.50
2018-02-05T04:55:58.208Z,0.60
2018-02-05T04:57:00.683Z,0.60
2018-02-05T04:58:03.189Z,0.60
2018-02-05T04:59:05.661Z,0.60
2018-02-05T05:00:10.130Z,0.60
2018-02-05T05:01:12.612Z,0.60
2018-02-05T05:02:15.106Z,0.60
2018-02-05T05:03:17.611Z,0.60
2018-02-05T05:04:20.186Z,0.60
2018-02-05T05:05:22.655Z,0.70
2018-02-05T05:06:25.141Z,0.70
2018-02-05T05:07:27.599Z,0.70
2018-02-05T05:08:30.085Z,0.70
2018-02-05T05:09:33.221Z,0.70
2018-02-05T05:10:36.511Z,0.70
2018-02-05T05:11:38.960Z,0.70
2018-02-05T05:12:41.427Z,0.70
2018-02-05T05:13:43.904Z,0.70
2018-02-05T05:14:46.380Z,0.80
2018-02-05T05:15:48.872Z,0.80
2018-02-05T05:16:52.147Z,0.80
2018-02-05T05:17:54.631Z,0.70
2018-02-05T05:18:57.122Z,0.80
2018-02-05T05:19:59.605Z,0.80
2018-02-05T05:21:02.078Z,0.80
2018-02-05T05:22:04.544Z,0.80
2018-02-05T05:23:07.047Z,0.80
2018-02-05T05:24:09.553Z,0.70
2018-02-05T05:25:12.816Z,0.70
2018-02-05T05:26:15.290Z,0.70
2018-02-05T05:27:17.767Z,0.70
2018-02-05T05:28:21.249Z,0.70
2018-02-05T05:29:24.472Z,0.70
2018-02-05T05:30:26.976Z,0.70
2018-02-05T05:31:29.441Z,0.70
2018-02-05T05:32:31.938Z,0.80
2018-02-05T05:33:34.424Z,0.80
2018-02-05T05:34:36.906Z,0.80
2018-02-05T05:35:39.408Z,0.70
2018-02-05T05:36:41.909Z,0.70
2018-02-05T05:37:44.426Z,0.70
2018-02-05T05:38:47.671Z,0.70
2018-02-05T05:39:50.192Z,0.70
2018-02-05T05:40:52.676Z,0.70
2018-02-05T05:41:55.159Z,0.70
2018-02-05T05:42:57.830Z,0.70
2018-02-05T05:44:01.086Z,0.70
2018-02-05T05:45:04.338Z,0.70
2018-02-05T05:46:06.852Z,0.70
2018-02-05T05:47:10.508Z,0.70
2018-02-05T05:48:13.590Z,0.70
2018-02-05T05:49:16.063Z,0.70
2018-02-05T05:50:18.573Z,0.70
2018-02-05T05:51:21.985Z,0.70
2018-02-05T05:52:24.452Z,0.70
2018-02-05T05:53:26.940Z,0.70
2018-02-05T05:54:29.457Z,0.70
2018-02-05T05:55:32.725Z,0.70
2018-02-05T05:56:35.776Z,0.70
2018-02-05T05:57:38.251Z,0.70
2018-02-05T05:58:40.727Z,0.70
2018-02-05T05:59:43.200Z,0.70
2018-02-05T06:00:45.702Z,0.80
2018-02-05T06:01:48.193Z,0.80
2018-02-05T06:02:51.442Z,0.80
2018-02-05T06:03:53.924Z,0.90
2018-02-05T06:04:56.426Z,0.90
2018-02-05T06:05:59.677Z,0.80
2018-02-05T06:07:02.169Z,0.80
2018-02-05T06:08:04.680Z,0.70
2018-02-05T06:09:07.164Z,0.80
2018-02-05T06:10:09.673Z,0.80
2018-02-05T06:11:12.165Z,0.80
2018-02-05T06:12:15.424Z,0.80
2018-02-05T06:13:17.917Z,0.80
2018-02-05T06:14:21.180Z,0.80
2018-02-05T06:15:23.659Z,0.80
2018-02-05T06:16:26.144Z,0.80
2018-02-05T06:17:29.553Z,0.80
2018-02-05T06:18:32.039Z,0.80
2018-02-05T06:19:35.288Z,0.80
2018-02-05T06:20:37.775Z,0.80
2018-02-05T06:21:41.034Z,0.80
2018-02-05T06:22:43.536Z,0.80
2018-02-05T06:23:46.825Z,0.90
2018-02-05T06:24:49.299Z,0.90
2018-02-05T06:25:51.812Z,0.90
2018-02-05T06:26:54.287Z,0.90
2018-02-05T06:27:56.776Z,0.90
2018-02-05T06:28:59.312Z,0.90
2018-02-05T06:30:01.803Z,0.90
2018-02-05T06:31:04.328Z,0.90
2018-02-05T06:32:06.841Z,0.90
2018-02-05T06:33:09.350Z,0.90
2018-02-05T06:34:12.642Z,1.00
2018-02-05T06:35:15.364Z,0.90
2018-02-05T06:36:17.852Z,0.90
2018-02-05T06:37:21.485Z,0.90
2018-02-05T06:38:24.726Z,1.00
2018-02-05T06:39:27.499Z,0.90
2018-02-05T06:40:29.992Z,0.90
2018-02-05T06:41:32.456Z,1.00
2018-02-05T06:42:34.966Z,0.90
2018-02-05T06:43:37.452Z,0.90
2018-02-05T06:44:39.938Z,0.90
2018-02-05T06:45:43.221Z,1.00
2018-02-05T06:46:46.652Z,1.00
2018-02-05T06:47:49.702Z,1.00
2018-02-05T06:48:52.177Z,1.00
2018-02-05T06:49:55.504Z,1.00
2018-02-05T06:51:09.797Z,1.00
2018-02-05T06:52:23.928Z,1.00
2018-02-05T06:55:17.106Z,1.00
2018-02-05T06:56:25.252Z,1.00
2018-02-05T06:57:27.759Z,1.00
2018-02-05T06:58:30.259Z,1.00
2018-02-05T06:59:33.528Z,0.90
2018-02-05T07:00:36.027Z,1.00
2018-02-05T07:01:40.088Z,1.00
2018-02-05T07:02:42.608Z,1.00
2018-02-05T07:03:45.866Z,1.00
2018-02-05T07:04:48.375Z,1.00
2018-02-05T07:05:51.705Z,1.00
2018-02-05T07:06:55.023Z,1.00
2018-02-05T07:07:57.511Z,1.00
2018-02-05T07:09:00.820Z,1.00
2018-02-05T07:10:03.322Z,1.00
2018-02-05T07:11:05.836Z,1.10
2018-02-05T07:12:08.335Z,1.10
2018-02-05T07:13:11.021Z,1.10
2018-02-05T07:14:13.548Z,1.10
2018-02-05T07:15:16.156Z,1.10
2018-02-05T07:16:19.385Z,1.10
2018-02-05T07:17:21.892Z,1.10
2018-02-05T07:18:25.159Z,1.20
2018-02-05T07:19:27.662Z,1.20
2018-02-05T07:20:30.148Z,1.10
2018-02-05T07:21:32.637Z,1.10
2018-02-05T07:22:35.137Z,1.10
2018-02-05T07:23:37.621Z,1.00
2018-02-05T07:24:40.878Z,1.10
2018-02-05T07:25:43.406Z,1.10
2018-02-05T07:26:45.908Z,1.10
2018-02-05T07:27:48.398Z,1.10
2018-02-05T07:28:50.909Z,1.10
2018-02-05T07:29:54.184Z,1.20
2018-02-05T07:30:57.440Z,1.20
2018-02-05T07:32:01.022Z,1.20
2018-02-05T07:33:03.513Z,1.20
2018-02-05T07:34:06.052Z,1.30
2018-02-05T07:35:09.127Z,1.30
2018-02-05T07:36:11.652Z,1.20
2018-02-05T07:37:14.166Z,1.20
2018-02-05T07:38:16.687Z,1.20
2018-02-05T07:39:19.963Z,1.20
2018-02-05T07:40:22.474Z,1.20
2018-02-05T07:41:25.017Z,1.20
2018-02-05T07:42:27.478Z,1.20
2018-02-05T07:43:30.819Z,1.20
2018-02-05T07:44:33.320Z,1.20
2018-02-05T07:45:35.822Z,1.20
2018-02-05T07:46:38.313Z,1.20
2018-02-05T07:47:43.550Z,1.20
2018-02-05T07:48:46.062Z,1.20
2018-02-05T07:49:48.609Z,1.20
2018-02-05T07:50:51.140Z,1.20
2018-02-05T07:51:53.676Z,1.30
2018-02-05T07:52:56.183Z,1.30
2018-02-05T07:53:58.981Z,1.20
2018-02-05T07:55:01.458Z,1.30
2018-02-05T07:56:04.666Z,1.30
2018-02-05T07:57:07.151Z,1.30
2018-02-05T07:58:10.154Z,1.40
2018-02-05T07:59:12.657Z,1.40
2018-02-05T08:00:15.932Z,1.40
2018-02-05T08:01:19.199Z,1.40
2018-02-05T08:02:21.692Z,1.30
2018-02-05T08:03:24.972Z,1.40
2018-02-05T08:04:28.290Z,1.40
2018-02-05T08:05:30.832Z,1.40
2018-02-05T08:06:34.085Z,1.30
2018-02-05T08:07:36.561Z,1.40
2018-02-05T08:08:39.852Z,1.50
2018-02-05T08:09:42.329Z,1.40
2018-02-05T08:10:44.860Z,1.50
2018-02-05T08:11:48.038Z,1.50
2018-02-05T08:12:50.535Z,1.50
2018-02-05T08:13:53.013Z,1.60
2018-02-05T08:14:55.506Z,1.50
2018-02-05T08:15:58.030Z,1.60
2018-02-05T08:17:00.536Z,1.60
2018-02-05T08:18:03.027Z,1.60
2018-02-05T08:19:06.336Z,1.60
2018-02-05T08:20:08.833Z,1.60
2018-02-05T08:21:11.376Z,1.70
2018-02-05T08:22:13.891Z,1.70
2018-02-05T08:23:16.422Z,1.80
2018-02-05T08:24:18.942Z,1.70
2018-02-05T08:25:22.280Z,1.80
2018-02-05T08:26:24.858Z,1.70
2018-02-05T08:27:27.967Z,1.80
2018-02-05T08:28:30.466Z,1.70
2018-02-05T08:29:33.086Z,1.80
2018-02-05T08:30:35.598Z,1.80
2018-02-05T08:31:38.105Z,1.80
2018-02-05T08:32:41.385Z,1.90
2018-02-05T08:33:44.700Z,2.00
2018-02-05T08:34:47.217Z,1.90
2018-02-05T08:35:49.737Z,1.90
2018-02-05T08:36:52.315Z,2.00
2018-02-05T08:37:54.894Z,2.00
2018-02-05T08:38:57.398Z,2.00
2018-02-05T08:39:59.893Z,2.00
2018-02-05T08:41:02.431Z,2.00
2018-02-05T08:42:04.943Z,1.90
2018-02-05T08:43:08.222Z,1.90
2018-02-05T08:44:10.739Z,1.90
2018-02-05T08:45:13.229Z,1.90
2018-02-05T08:46:15.719Z,2.00
2018-02-05T08:47:18.209Z,2.00
2018-02-05T08:48:20.713Z,2.10
2018-02-05T08:49:23.211Z,2.10
2018-02-05T08:50:25.708Z,2.00
2018-02-05T08:51:28.220Z,2.10
2018-02-05T08:52:30.722Z,2.10
2018-02-05T08:53:33.265Z,2.10
2018-02-05T08:54:35.757Z,2.10
2018-02-05T08:55:38.266Z,2.10
2018-02-05T08:56:41.481Z,2.10
2018-02-05T08:57:44.100Z,2.10
2018-02-05T08:58:46.602Z,2.10
2018-02-05T08:59:49.879Z,2.20
2018-02-05T09:00:53.171Z,2.20
2018-02-05T09:01:55.663Z,2.20
2018-02-05T09:02:58.911Z,2.10
2018-02-05T09:04:01.428Z,2.20
2018-02-05T09:05:03.941Z,2.20
2018-02-05T09:06:06.442Z,2.20
2018-02-05T09:07:08.968Z,2.20
2018-02-05T09:08:11.458Z,2.20
2018-02-05T09:09:13.962Z,2.30
2018-02-05T09:10:17.240Z,2.30
2018-02-05T09:11:19.732Z,2.30
2018-02-05T09:12:22.988Z,2.30
2018-02-05T09:13:25.472Z,2.30
2018-02-05T09:14:28.745Z,2.20
2018-02-05T09:15:31.357Z,2.30
2018-02-05T09:16:34.633Z,2.20
2018-02-05T09:17:37.936Z,2.10
2018-02-05T09:18:40.441Z,2.10
2018-02-05T09:19:43.043Z,2.20
2018-02-05T09:20:45.501Z,2.10
2018-02-05T09:21:48.535Z,2.10
2018-02-05T09:22:51.045Z,2.10
2018-02-05T09:23:53.584Z,2.10
2018-02-05T09:24:56.111Z,2.10
2018-02-05T09:25:59.430Z,2.00
2018-02-05T09:27:01.936Z,2.00
2018-02-05T09:28:04.466Z,2.00
2018-02-05T09:29:06.968Z,2.10
2018-02-05T09:30:09.536Z,2.00
2018-02-05T09:31:12.143Z,2.00
2018-02-05T09:32:14.678Z,2.10
2018-02-05T09:33:17.269Z,2.10
2018-02-05T09:34:19.760Z,2.20
2018-02-05T09:35:23.799Z,2.40
2018-02-05T09:36:26.320Z,2.40
2018-02-05T09:37:29.720Z,2.40
2018-02-05T09:38:32.204Z,2.40
2018-02-05T09:39:34.734Z,2.50
2018-02-05T09:40:38.998Z,2.50
2018-02-05T09:41:42.249Z,2.50
2018-02-05T09:42:45.385Z,2.50
2018-02-05T09:43:47.911Z,2.50
2018-02-05T09:44:50.422Z,2.50
2018-02-05T09:45:53.715Z,2.50
2018-02-05T09:46:56.242Z,2.50
2018-02-05T09:47:58.731Z,2.40
2018-02-05T09:49:02.027Z,2.40
2018-02-05T09:50:05.279Z,2.50
2018-02-05T09:51:07.801Z,2.50
2018-02-05T09:52:10.380Z,2.60
2018-02-05T09:53:12.948Z,2.70
2018-02-05T09:54:15.539Z,2.60
2018-02-05T09:55:18.066Z,2.70
2018-02-05T09:56:20.568Z,2.70
2018-02-05T09:57:23.074Z,2.60
2018-02-05T09:58:25.568Z,2.50
2018-02-05T09:59:29.000Z,2.50
2018-02-05T10:00:31.510Z,2.40
2018-02-05T10:01:34.105Z,2.40
2018-02-05T10:02:36.611Z,2.40
2018-02-05T10:03:39.117Z,2.40
2018-02-05T10:04:41.608Z,2.50
2018-02-05T10:05:44.110Z,2.50
2018-02-05T10:06:48.533Z,2.40
2018-02-05T10:07:51.018Z,2.40
2018-02-05T10:08:54.009Z,2.40
2018-02-05T10:09:56.526Z,2.40
2018-02-05T10:10:59.778Z,2.40
2018-02-05T10:12:02.320Z,2.30
2018-02-05T10:13:04.885Z,2.40
2018-02-05T10:14:07.461Z,2.50
2018-02-05T10:15:09.977Z,2.50
2018-02-05T10:16:13.738Z,2.60
2018-02-05T10:17:16.269Z,2.60
2018-02-05T10:18:18.873Z,2.60
2018-02-05T10:19:21.374Z,2.70
2018-02-05T10:20:23.914Z,2.70
2018-02-05T10:21:27.196Z,2.80
2018-02-05T10:22:30.570Z,2.80
2018-02-05T10:23:33.165Z,2.80
2018-02-05T10:24:35.684Z,2.80
2018-02-05T10:25:38.172Z,2.80
2018-02-05T10:26:40.732Z,2.60
2018-02-05T10:27:43.308Z,2.60
2018-02-05T10:28:46.619Z,2.60
2018-02-05T10:29:49.864Z,2.70
2018-02-05T10:30:52.367Z,2.70
2018-02-05T10:31:55.023Z,2.70
2018-02-05T10:32:57.494Z,2.70
2018-02-05T10:33:59.984Z,2.70
2018-02-05T10:35:03.255Z,2.80
2018-02-05T10:36:05.776Z,2.80
2018-02-05T10:37:08.274Z,3.00
2018-02-05T10:38:10.793Z,3.00
2018-02-05T10:39:14.061Z,2.90
2018-02-05T10:40:16.666Z,2.90
2018-02-05T10:41:19.193Z,2.90
2018-02-05T10:42:21.678Z,3.00
2018-02-05T10:43:24.213Z,2.90
2018-02-05T10:44:26.718Z,3.00
2018-02-05T10:45:29.214Z,3.00
2018-02-05T10:46:31.717Z,3.20
2018-02-05T10:47:34.340Z,3.40
2018-02-05T10:48:37.618Z,3.20
2018-02-05T10:49:40.102Z,3.20
2018-02-05T10:50:43.358Z,3.30
2018-02-05T10:51:45.842Z,3.30
2018-02-05T10:52:48.338Z,3.30
2018-02-05T10:53:51.631Z,3.50
2018-02-05T10:54:54.926Z,3.60
2018-02-05T10:55:57.496Z,3.60
2018-02-05T10:57:00.095Z,3.60
2018-02-05T10:58:02.575Z,3.50
2018-02-05T10:59:05.077Z,3.50
2018-02-05T11:00:07.681Z,3.50
2018-02-05T11:01:10.192Z,3.60
2018-02-05T11:02:13.225Z,3.50
2018-02-05T11:03:15.929Z,3.30
2018-02-05T11:04:18.458Z,3.30
2018-02-05T11:05:21.744Z,3.20
2018-02-05T11:06:25.043Z,3.20
2018-02-05T11:07:29.294Z,3.20
2018-02-05T11:08:31.825Z,3.20
2018-02-05T11:09:35.234Z,3.20
2018-02-05T11:10:37.772Z,3.20
2018-02-05T11:11:40.292Z,3.30
2018-02-05T11:12:42.819Z,3.20
2018-02-05T11:13:46.098Z,3.20
2018-02-05T11:14:48.624Z,3.20
2018-02-05T11:15:52.024Z,3.10
2018-02-05T11:16:54.546Z,3.00
2018-02-05T11:17:57.827Z,3.10
2018-02-05T11:19:01.081Z,3.10
2018-02-05T11:20:03.710Z,3.00
2018-02-05T11:21:06.218Z,3.10
2018-02-05T11:22:08.716Z,3.00
2018-02-05T11:23:11.216Z,3.20
2018-02-05T11:24:14.528Z,3.20
2018-02-05T11:25:17.077Z,3.20
2018-02-05T11:26:20.356Z,3.30
2018-02-05T11:27:23.626Z,3.20
2018-02-05T11:28:27.639Z,3.30
2018-02-05T11:29:30.902Z,3.40
2018-02-05T11:30:33.628Z,3.30
2018-02-05T11:31:36.129Z,3.40
2018-02-05T11:32:38.615Z,3.50
2018-02-05T11:33:41.103Z,3.50
2018-02-05T11:34:43.604Z,3.70
2018-02-05T11:35:46.124Z,3.60
2018-02-05T11:36:48.607Z,3.60
2018-02-05T11:37:51.221Z,3.60
2018-02-05T11:38:53.710Z,3.50
2018-02-05T11:39:56.275Z,3.50
2018-02-05T11:40:59.551Z,3.40
2018-02-05T11:42:02.048Z,3.40
2018-02-05T11:43:04.546Z,3.40
2018-02-05T11:44:07.164Z,3.40
2018-02-05T11:45:10.625Z,3.30
2018-02-05T11:46:13.901Z,3.30
2018-02-05T11:47:16.398Z,3.30
2018-02-05T11:48:19.730Z,3.20
2018-02-05T11:49:22.235Z,3.20
2018-02-05T11:50:24.727Z,3.30
2018-02-05T11:51:28.053Z,3.20
2018-02-05T11:52:30.540Z,3.20
2018-02-05T11:53:33.020Z,3.20
2018-02-05T11:54:35.644Z,3.20
2018-02-05T11:55:38.150Z,3.10
2018-02-05T11:56:40.799Z,3.20
2018-02-05T11:57:43.310Z,3.10
2018-02-05T11:58:45.833Z,3.10
2018-02-05T11:59:48.371Z,3.20
2018-02-05T12:00:50.889Z,3.30
2018-02-05T12:01:54.364Z,3.20
2018-02-05T12:02:57.591Z,3.20
2018-02-05T12:04:00.099Z,3.20
2018-02-05T12:05:02.599Z,3.10
2018-02-05T12:06:06.602Z,3.20
2018-02-05T12:07:09.239Z,3.20
2018-02-05T12:08:11.756Z,3.20
2018-02-05T12:09:14.253Z,3.10
2018-02-05T12:10:17.537Z,3.20
2018-02-05T12:11:20.809Z,3.20
2018-02-05T12:12:24.945Z,3.20
2018-02-05T12:13:27.444Z,3.20
2018-02-05T12:14:29.983Z,3.30
2018-02-05T12:15:32.558Z,3.30
2018-02-05T12:16:35.041Z,3.30
2018-02-05T12:17:37.556Z,3.30
2018-02-05T12:18:40.067Z,3.20
2018-02-05T12:19:42.591Z,3.20
2018-02-05T12:20:45.675Z,3.20
2018-02-05T12:21:48.620Z,3.10
2018-02-05T12:22:51.134Z,3.00
2018-02-05T12:23:53.648Z,3.00
2018-02-05T12:24:56.151Z,2.90
2018-02-05T12:25:58.671Z,2.90
2018-02-05T12:27:01.930Z,2.80
2018-02-05T12:28:04.423Z,2.70
2018-02-05T12:29:07.744Z,2.70
2018-02-05T12:30:10.321Z,2.70
2018-02-05T12:31:12.845Z,2.70
2018-02-05T12:32:16.172Z,2.70
2018-02-05T12:33:18.682Z,2.70
2018-02-05T12:34:21.227Z,2.70
2018-02-05T12:35:23.712Z,2.70
2018-02-05T12:36:26.715Z,2.70
2018-02-05T12:37:29.328Z,2.80
2018-02-05T12:38:31.828Z,2.80
2018-02-05T12:39:34.348Z,2.80
2018-02-05T12:40:37.968Z,3.00
2018-02-05T12:41:40.729Z,2.90
2018-02-05T12:42:43.297Z,2.90
2018-02-05T12:43:46.583Z,3.10
2018-02-05T12:44:49.867Z,3.30
2018-02-05T12:45:53.168Z,3.20
2018-02-05T12:46:56.446Z,3.20
2018-02-05T12:47:59.755Z,3.10
2018-02-05T12:49:02.276Z,3.10
2018-02-05T12:50:04.790Z,3.00
2018-02-05T12:51:07.307Z,3.00
2018-02-05T12:52:09.795Z,2.90
2018-02-05T12:53:12.323Z,2.90
2018-02-05T12:54:14.839Z,2.70
2018-02-05T12:55:17.386Z,2.70
2018-02-05T12:56:20.035Z,2.70
2018-02-05T12:57:22.531Z,2.70
2018-02-05T12:58:25.570Z,2.70
2018-02-05T12:59:28.077Z,2.80
2018-02-05T13:02:15.673Z,3.30
2018-02-05T13:03:24.527Z,3.50
2018-02-05T13:04:32.666Z,3.40
2018-02-05T13:05:35.158Z,3.40
2018-02-05T13:06:41.260Z,3.40
2018-02-05T13:07:43.762Z,3.40
2018-02-05T13:08:46.298Z,3.40
2018-02-05T13:09:48.780Z,3.30
2018-02-05T13:10:51.289Z,3.40
2018-02-05T13:11:54.624Z,3.40
2018-02-05T13:12:57.115Z,3.40
2018-02-05T13:13:59.660Z,3.30
2018-02-05T13:15:03.085Z,3.30
2018-02-05T13:16:05.600Z,3.40
2018-02-05T13:17:08.129Z,3.30
2018-02-05T13:18:11.191Z,3.30
2018-02-05T13:19:13.704Z,3.20
2018-02-05T13:20:17.545Z,3.20
2018-02-05T13:21:20.047Z,3.10
2018-02-05T13:22:22.591Z,3.00
2018-02-05T13:23:26.371Z,3.00
2018-02-05T13:24:28.874Z,2.90
2018-02-05T13:25:31.372Z,3.00
2018-02-05T13:26:33.854Z,3.00
2018-02-05T13:27:36.394Z,3.00
2018-02-05T13:28:38.930Z,3.00
2018-02-05T13:29:42.444Z,3.00
2018-02-05T13:30:44.969Z,3.00
2018-02-05T13:31:48.227Z,2.90
2018-02-05T13:32:50.849Z,2.90
2018-02-05T13:33:53.364Z,2.90
2018-02-05T13:34:55.878Z,3.00
2018-02-05T13:35:59.158Z,3.00
2018-02-05T13:37:02.461Z,2.90
2018-02-05T13:38:05.759Z,3.00
2018-02-05T13:39:08.740Z,3.00
2018-02-05T13:40:12.204Z,3.00
2018-02-05T13:41:15.573Z,3.00
2018-02-05T13:42:18.120Z,2.90
2018-02-05T13:43:20.634Z,3.00
2018-02-05T13:44:23.178Z,3.00
2018-02-05T13:45:25.666Z,3.10
2018-02-05T13:46:28.276Z,3.10
2018-02-05T13:47:31.532Z,3.00
2018-02-05T13:48:35.000Z,3.10
2018-02-05T13:49:37.542Z,3.10
2018-02-05T13:50:40.822Z,3.10
2018-02-05T13:51:43.332Z,3.10
2018-02-05T13:52:45.832Z,3.10